Terminal Aerodrome Forecast
Issued by NWS

Home | Current Version | Previous Version | Text Only | Print | Product List | Glossary On
Versions: 1 2 3 4 5 6 7 8 9 10 11 12 13 14 15
000
FTUS45 KVEF 201100
TAFDAG
TAF
KDAG 201120Z 2012/2112 25008KT P6SM SKC
     FM201900 07007KT P6SM SKC
     FM202200 26011KT P6SM FEW100
     FM210200 25012KT P6SM FEW100 SCT140=

USA.gov is the U.S. government's official web portal to all federal, state and local government web resources and services.